Kirkland, WA

11:45 PM PST on February 24, 2017 (GMT -0800)
Kirkland, Wa | | Change Station
Active Advisory: Special Statement

Elev 233 ft 47.69 °N, 122.19 °W | Updated 7 seconds ago

Mostly Cloudy
Mostly Cloudy
37.0 °F
Feels Like 37 °F
N
0.4
Wind Variable Wind from NE
Gusts 0.7 mph

Today
High -- | Low -- °F
--% Chance of Precip.
Yesterday
High -- | Low -- °F
Precip. -- in
Pressure 30.26 in
Visibility 10.0 miles
Clouds Overcast 8000 ft
Windchill 37 °F
Dew Point 29 °F
Humidity 73%
Rainfall 0.00 in
Snow Depth Not available.
6:57 AM 5:46 PM
Waning Crescent, 2% visible
METAR KBFI 250653Z 00000KT 10SM OVC080 05/01 A3026 RMK AO2 SLP245 T00500011 $
Pressure 30.26 in
Visibility 10.0 miles
Clouds Overcast 8000 ft
Windchill 37 °F
Dew Point 29 °F
Humidity 73%
Rainfall 0.00 in
Snow Depth Not available.
6:57 AM 5:46 PM
Waning Crescent, 2% visible
METAR KBFI 250653Z 00000KT 10SM OVC080 05/01 A3026 RMK AO2 SLP245 T00500011 $

Get Your Daily Forecast Email!

Thanks for signing up!

Be on the lookout for a verification email in your inbox.

You'll start receiving the daily forecast at 8 AM.

×

10-Day Weather Forecast

Almanac

Astronomy

Feb. 24, 2017 Rise Set
Actual Time
Civil Twilight
Nautical Twilight
Astronomical Twilight
Moon
Length of Visible Light
Length of Day
Tomorrow will be .
, % of the Moon is Illuminated

Today's Extremes

State Highs State Lows

Community

WunderPhotos

Upload Photos

1,962,540 photos uploaded!

WunderBlog® & News

Nearby

Air Quality

  Air Quality AQ Index Pollutant
Not available.

Snow Depth

Station Depth Elevation

Earthquake Activity

City Distance Mag. Time & Date
Minimum magnitude displayed is 2.5.

Coastal Water Temperatures

Place Temperature

Stations

Nearby Weather Stations

Station Location Temp. Windchill Dew Point Humidity Wind Precip. Elev Updated Type
                   

Watches & Warnings

Special Statement
Issued: 4:01 PM PST Feb. 24, 2017 – National Weather Service

... Lowland snow showers are possible Saturday night into Sunday
morning...

Lowland snow is possible as another system moves through the area
Saturday night and Sunday morning, producing showers. Up to 2 inches
of snow accumulation is possible at areas above 300-500 feet, mainly
north and east of Seattle. The potential for more widespread snow
accumulations exists if model solutions change slightly. Stay tuned
to weather.Gov/Seattle for the latest updates.

Jsmith


Www.Weather.Gov/Seattle

401 PM PST Fri Feb 24 2017

... Lowland snow showers are possible Saturday night into Sunday
morning...

Lowland snow is possible as another system moves through the area
Saturday night and Sunday morning, producing showers. Up to 2 inches
of snow accumulation is possible at areas above 300-500 feet, mainly
north and east of Seattle. The potential for more widespread snow
accumulations exists if model solutions change slightly. Stay tuned
to weather.Gov/Seattle for the latest updates.

Jsmith


Www.Weather.Gov/Seattle